РПИ Ашхабад

Руководитель РПИ

Evgeny Vygornitsky*

Инструкторы РПИ
Evgeny Vygornitsky (Supervisor)
Vitaliy Alekseyev (Instructor)
Входит в состав
ЗЦ Центральная Азия

Диспетчеры РПИ

Диспетчер Рейтинг Допуски *
begench atayev Student 2 UTAA_GND

Аэропорты РПИ

ICAO Город Название Погода
UTAA Ашхабад Ашхабад UTAA 161800Z 08006KT 040V100 9999 FEW015CB OVC015 05/02 Q1014 R88/CLRD70 NOSIG
UTAM Мары Мары UTAM 161800Z 01004KT 6000 FEW046CB BKN046 OVC100 06/02 Q1016 R88/CLRD70 NOSIG